sensor_id;sensor_type;location;lat;lon;timestamp;P1;durP1;ratioP1;P2;durP2;ratioP2
68987;SDS011;56038;46.080;11.116;2023-01-04T00:03:24;21.73;;;15.95;;
68987;SDS011;56038;46.080;11.116;2023-01-04T00:08:28;23.00;;;16.20;;
68987;SDS011;56038;46.080;11.116;2023-01-04T00:13:30;25.33;;;15.55;;
68987;SDS011;56038;46.080;11.116;2023-01-04T00:18:31;21.77;;;15.32;;
68987;SDS011;56038;46.080;11.116;2023-01-04T00:23:35;22.33;;;15.23;;
68987;SDS011;56038;46.080;11.116;2023-01-04T00:28:37;23.20;;;16.02;;
68987;SDS011;56038;46.080;11.116;2023-01-04T00:33:39;21.83;;;15.05;;
68987;SDS011;56038;46.080;11.116;2023-01-04T00:38:43;22.08;;;14.25;;
68987;SDS011;56038;46.080;11.116;2023-01-04T00:43:44;25.73;;;15.90;;
68987;SDS011;56038;46.080;11.116;2023-01-04T00:48:46;21.15;;;14.40;;
68987;SDS011;56038;46.080;11.116;2023-01-04T00:53:50;22.25;;;13.57;;
68987;SDS011;56038;46.080;11.116;2023-01-04T00:58:53;19.10;;;13.38;;
68987;SDS011;56038;46.080;11.116;2023-01-04T01:03:56;19.13;;;13.13;;
68987;SDS011;56038;46.080;11.116;2023-01-04T01:09:00;21.92;;;13.02;;
68987;SDS011;56038;46.080;11.116;2023-01-04T01:14:02;19.15;;;13.85;;
68987;SDS011;56038;46.080;11.116;2023-01-04T01:19:04;19.20;;;12.60;;
68987;SDS011;56038;46.080;11.116;2023-01-04T01:24:07;21.83;;;13.90;;
68987;SDS011;56038;46.080;11.116;2023-01-04T01:29:15;18.38;;;12.95;;
68987;SDS011;56038;46.080;11.116;2023-01-04T01:34:16;19.42;;;13.27;;
68987;SDS011;56038;46.080;11.116;2023-01-04T01:39:20;21.25;;;13.30;;
68987;SDS011;56038;46.080;11.116;2023-01-04T01:49:59;15.55;;;12.07;;
68987;SDS011;56038;46.080;11.116;2023-01-04T01:55:04;19.10;;;13.50;;
68987;SDS011;56038;46.080;11.116;2023-01-04T02:00:10;17.63;;;13.13;;
68987;SDS011;56038;46.080;11.116;2023-01-04T02:05:13;20.80;;;11.88;;
68987;SDS011;56038;46.080;11.116;2023-01-04T02:10:19;17.30;;;11.88;;
68987;SDS011;56038;46.080;11.116;2023-01-04T02:15:21;20.40;;;12.63;;
68987;SDS011;56038;46.080;11.116;2023-01-04T02:20:36;16.05;;;11.23;;
68987;SDS011;56038;46.080;11.116;2023-01-04T02:25:51;14.63;;;10.68;;
68987;SDS011;56038;46.080;11.116;2023-01-04T02:31:16;16.02;;;11.75;;
68987;SDS011;56038;46.080;11.116;2023-01-04T02:36:29;16.92;;;11.77;;
68987;SDS011;56038;46.080;11.116;2023-01-04T02:41:37;16.30;;;12.07;;
68987;SDS011;56038;46.080;11.116;2023-01-04T02:46:45;18.40;;;12.02;;
68987;SDS011;56038;46.080;11.116;2023-01-04T02:51:50;18.77;;;11.45;;
68987;SDS011;56038;46.080;11.116;2023-01-04T02:56:53;14.23;;;10.63;;
68987;SDS011;56038;46.080;11.116;2023-01-04T03:02:09;15.63;;;11.18;;
68987;SDS011;56038;46.080;11.116;2023-01-04T03:07:44;13.00;;;10.35;;
68987;SDS011;56038;46.080;11.116;2023-01-04T03:12:51;15.73;;;10.43;;
68987;SDS011;56038;46.080;11.116;2023-01-04T03:18:00;16.38;;;10.30;;
68987;SDS011;56038;46.080;11.116;2023-01-04T03:23:11;15.52;;;10.48;;
68987;SDS011;56038;46.080;11.116;2023-01-04T03:28:35;14.38;;;9.18;;
68987;SDS011;56038;46.080;11.116;2023-01-04T03:33:58;13.30;;;9.82;;
68987;SDS011;56038;46.080;11.116;2023-01-04T03:39:19;16.25;;;10.73;;
68987;SDS011;56038;46.080;11.116;2023-01-04T03:44:46;13.82;;;9.80;;
68987;SDS011;56038;46.080;11.116;2023-01-04T03:50:16;13.93;;;10.73;;
68987;SDS011;56038;46.080;11.116;2023-01-04T03:55:22;14.65;;;10.02;;
68987;SDS011;56038;46.080;11.116;2023-01-04T04:00:26;13.65;;;9.60;;
68987;SDS011;56038;46.080;11.116;2023-01-04T04:05:30;14.27;;;10.07;;
68987;SDS011;56038;46.080;11.116;2023-01-04T04:10:50;12.82;;;9.80;;
68987;SDS011;56038;46.080;11.116;2023-01-04T04:15:52;14.82;;;9.23;;
68987;SDS011;56038;46.080;11.116;2023-01-04T04:20:57;13.65;;;9.75;;
68987;SDS011;56038;46.080;11.116;2023-01-04T04:25:59;14.23;;;8.98;;
68987;SDS011;56038;46.080;11.116;2023-01-04T04:31:00;13.88;;;9.65;;
68987;SDS011;56038;46.080;11.116;2023-01-04T04:36:04;18.98;;;10.43;;
68987;SDS011;56038;46.080;11.116;2023-01-04T04:41:07;12.90;;;8.50;;
68987;SDS011;56038;46.080;11.116;2023-01-04T04:46:27;12.70;;;9.00;;
68987;SDS011;56038;46.080;11.116;2023-01-04T04:51:31;13.25;;;9.40;;
68987;SDS011;56038;46.080;11.116;2023-01-04T04:56:33;10.90;;;7.97;;
68987;SDS011;56038;46.080;11.116;2023-01-04T05:01:36;9.70;;;7.78;;
68987;SDS011;56038;46.080;11.116;2023-01-04T05:06:39;13.63;;;7.90;;
68987;SDS011;56038;46.080;11.116;2023-01-04T05:11:41;12.00;;;7.65;;
68987;SDS011;56038;46.080;11.116;2023-01-04T05:17:00;12.27;;;8.75;;
68987;SDS011;56038;46.080;11.116;2023-01-04T05:22:03;13.32;;;8.77;;
68987;SDS011;56038;46.080;11.116;2023-01-04T05:27:05;11.20;;;8.63;;
68987;SDS011;56038;46.080;11.116;2023-01-04T05:32:07;13.65;;;8.35;;
68987;SDS011;56038;46.080;11.116;2023-01-04T05:37:10;9.23;;;7.35;;
68987;SDS011;56038;46.080;11.116;2023-01-04T05:42:12;10.57;;;7.90;;
68987;SDS011;56038;46.080;11.116;2023-01-04T05:47:27;12.38;;;8.90;;
68987;SDS011;56038;46.080;11.116;2023-01-04T05:52:30;13.80;;;8.73;;
68987;SDS011;56038;46.080;11.116;2023-01-04T05:57:32;12.35;;;9.75;;
68987;SDS011;56038;46.080;11.116;2023-01-04T06:02:34;12.13;;;8.85;;
68987;SDS011;56038;46.080;11.116;2023-01-04T06:07:37;19.63;;;8.73;;
68987;SDS011;56038;46.080;11.116;2023-01-04T06:12:40;15.40;;;8.88;;
68987;SDS011;56038;46.080;11.116;2023-01-04T06:17:42;12.48;;;7.55;;
68987;SDS011;56038;46.080;11.116;2023-01-04T06:22:45;9.55;;;7.50;;
68987;SDS011;56038;46.080;11.116;2023-01-04T06:27:47;12.05;;;8.20;;
68987;SDS011;56038;46.080;11.116;2023-01-04T06:32:49;8.77;;;6.95;;
68987;SDS011;56038;46.080;11.116;2023-01-04T06:37:52;9.32;;;7.65;;
68987;SDS011;56038;46.080;11.116;2023-01-04T06:42:53;12.38;;;7.53;;
68987;SDS011;56038;46.080;11.116;2023-01-04T06:47:55;12.80;;;8.48;;
68987;SDS011;56038;46.080;11.116;2023-01-04T06:52:58;11.35;;;8.07;;
68987;SDS011;56038;46.080;11.116;2023-01-04T06:58:00;10.00;;;7.20;;
68987;SDS011;56038;46.080;11.116;2023-01-04T07:03:02;11.40;;;7.55;;
68987;SDS011;56038;46.080;11.116;2023-01-04T07:08:05;10.15;;;7.03;;
68987;SDS011;56038;46.080;11.116;2023-01-04T07:13:07;12.80;;;8.07;;
68987;SDS011;56038;46.080;11.116;2023-01-04T07:18:10;13.20;;;8.38;;
68987;SDS011;56038;46.080;11.116;2023-01-04T07:23:13;19.77;;;10.90;;
68987;SDS011;56038;46.080;11.116;2023-01-04T07:28:14;31.05;;;17.75;;
68987;SDS011;56038;46.080;11.116;2023-01-04T07:33:37;18.58;;;10.63;;
68987;SDS011;56038;46.080;11.116;2023-01-04T07:38:40;14.27;;;9.90;;
68987;SDS011;56038;46.080;11.116;2023-01-04T07:43:42;14.23;;;9.77;;
68987;SDS011;56038;46.080;11.116;2023-01-04T07:48:45;11.05;;;8.90;;
68987;SDS011;56038;46.080;11.116;2023-01-04T07:53:48;9.05;;;7.55;;
68987;SDS011;56038;46.080;11.116;2023-01-04T07:58:50;12.23;;;9.15;;
68987;SDS011;56038;46.080;11.116;2023-01-04T08:03:56;12.87;;;9.40;;
68987;SDS011;56038;46.080;11.116;2023-01-04T08:08:59;11.68;;;8.02;;
68987;SDS011;56038;46.080;11.116;2023-01-04T08:14:01;15.40;;;10.45;;
68987;SDS011;56038;46.080;11.116;2023-01-04T08:19:04;15.73;;;10.20;;
68987;SDS011;56038;46.080;11.116;2023-01-04T08:24:09;94.90;;;43.40;;
68987;SDS011;56038;46.080;11.116;2023-01-04T08:29:12;38.40;;;19.48;;
68987;SDS011;56038;46.080;11.116;2023-01-04T08:34:14;17.05;;;11.07;;
68987;SDS011;56038;46.080;11.116;2023-01-04T08:39:17;12.60;;;9.75;;
68987;SDS011;56038;46.080;11.116;2023-01-04T08:44:21;15.55;;;9.90;;
68987;SDS011;56038;46.080;11.116;2023-01-04T08:49:24;15.52;;;10.38;;
68987;SDS011;56038;46.080;11.116;2023-01-04T08:54:27;12.40;;;8.50;;
68987;SDS011;56038;46.080;11.116;2023-01-04T08:59:29;11.27;;;8.05;;
68987;SDS011;56038;46.080;11.116;2023-01-04T09:04:31;10.77;;;7.75;;
68987;SDS011;56038;46.080;11.116;2023-01-04T09:09:35;9.27;;;8.10;;
68987;SDS011;56038;46.080;11.116;2023-01-04T09:14:37;8.40;;;7.40;;
68987;SDS011;56038;46.080;11.116;2023-01-04T09:19:38;13.88;;;7.32;;
68987;SDS011;56038;46.080;11.116;2023-01-04T09:24:42;10.38;;;7.07;;
68987;SDS011;56038;46.080;11.116;2023-01-04T09:29:44;9.50;;;7.20;;
68987;SDS011;56038;46.080;11.116;2023-01-04T09:34:47;7.10;;;6.40;;
68987;SDS011;56038;46.080;11.116;2023-01-04T09:39:50;8.13;;;6.50;;
68987;SDS011;56038;46.080;11.116;2023-01-04T09:44:53;9.07;;;6.85;;
68987;SDS011;56038;46.080;11.116;2023-01-04T09:50:02;9.00;;;6.63;;
68987;SDS011;56038;46.080;11.116;2023-01-04T09:55:08;6.70;;;5.97;;
68987;SDS011;56038;46.080;11.116;2023-01-04T10:00:18;7.18;;;5.43;;
68987;SDS011;56038;46.080;11.116;2023-01-04T10:05:28;7.20;;;5.45;;
68987;SDS011;56038;46.080;11.116;2023-01-04T10:10:41;8.85;;;5.90;;
68987;SDS011;56038;46.080;11.116;2023-01-04T10:15:52;6.88;;;5.97;;
68987;SDS011;56038;46.080;11.116;2023-01-04T10:21:06;5.95;;;5.25;;
68987;SDS011;56038;46.080;11.116;2023-01-04T10:26:19;6.00;;;5.18;;
68987;SDS011;56038;46.080;11.116;2023-01-04T10:31:26;8.25;;;5.53;;
68987;SDS011;56038;46.080;11.116;2023-01-04T10:36:32;7.03;;;5.50;;
68987;SDS011;56038;46.080;11.116;2023-01-04T10:41:37;8.02;;;5.22;;
68987;SDS011;56038;46.080;11.116;2023-01-04T10:46:45;6.18;;;5.22;;
68987;SDS011;56038;46.080;11.116;2023-01-04T10:51:54;6.40;;;5.68;;
68987;SDS011;56038;46.080;11.116;2023-01-04T10:57:03;7.00;;;5.22;;
68987;SDS011;56038;46.080;11.116;2023-01-04T11:02:12;6.50;;;5.47;;
68987;SDS011;56038;46.080;11.116;2023-01-04T11:07:20;6.43;;;5.05;;
68987;SDS011;56038;46.080;11.116;2023-01-04T11:12:28;6.70;;;5.30;;
68987;SDS011;56038;46.080;11.116;2023-01-04T11:17:30;9.70;;;5.20;;
68987;SDS011;56038;46.080;11.116;2023-01-04T11:22:35;5.78;;;4.70;;
68987;SDS011;56038;46.080;11.116;2023-01-04T11:27:43;5.30;;;4.30;;
68987;SDS011;56038;46.080;11.116;2023-01-04T11:32:51;5.95;;;4.63;;
68987;SDS011;56038;46.080;11.116;2023-01-04T11:38:01;5.90;;;4.45;;
68987;SDS011;56038;46.080;11.116;2023-01-04T11:43:16;6.90;;;4.88;;
68987;SDS011;56038;46.080;11.116;2023-01-04T11:48:18;5.20;;;4.50;;
68987;SDS011;56038;46.080;11.116;2023-01-04T11:53:33;5.85;;;4.28;;
68987;SDS011;56038;46.080;11.116;2023-01-04T11:58:37;5.32;;;3.85;;
68987;SDS011;56038;46.080;11.116;2023-01-04T12:03:40;4.72;;;4.05;;
68987;SDS011;56038;46.080;11.116;2023-01-04T12:08:42;5.60;;;3.88;;
68987;SDS011;56038;46.080;11.116;2023-01-04T12:13:46;19.73;;;11.75;;
68987;SDS011;56038;46.080;11.116;2023-01-04T12:18:48;6.40;;;3.83;;
68987;SDS011;56038;46.080;11.116;2023-01-04T12:23:50;5.38;;;4.80;;
68987;SDS011;56038;46.080;11.116;2023-01-04T12:34:40;5.50;;;3.97;;
68987;SDS011;56038;46.080;11.116;2023-01-04T12:39:43;4.13;;;3.72;;
68987;SDS011;56038;46.080;11.116;2023-01-04T12:50:22;4.45;;;3.88;;
68987;SDS011;56038;46.080;11.116;2023-01-04T13:06:25;4.78;;;4.22;;
68987;SDS011;56038;46.080;11.116;2023-01-04T13:11:35;5.15;;;3.83;;
68987;SDS011;56038;46.080;11.116;2023-01-04T13:17:02;4.23;;;3.83;;
68987;SDS011;56038;46.080;11.116;2023-01-04T13:22:20;6.78;;;4.07;;
68987;SDS011;56038;46.080;11.116;2023-01-04T13:27:26;5.25;;;4.68;;
68987;SDS011;56038;46.080;11.116;2023-01-04T13:32:28;6.00;;;4.65;;
68987;SDS011;56038;46.080;11.116;2023-01-04T13:37:35;4.18;;;3.67;;
68987;SDS011;56038;46.080;11.116;2023-01-04T13:42:40;6.00;;;4.03;;
68987;SDS011;56038;46.080;11.116;2023-01-04T13:47:44;6.82;;;4.40;;
68987;SDS011;56038;46.080;11.116;2023-01-04T13:52:49;5.00;;;4.50;;
68987;SDS011;56038;46.080;11.116;2023-01-04T13:57:51;5.28;;;4.18;;
68987;SDS011;56038;46.080;11.116;2023-01-04T14:03:03;4.53;;;4.05;;
68987;SDS011;56038;46.080;11.116;2023-01-04T14:08:15;4.68;;;4.18;;
68987;SDS011;56038;46.080;11.116;2023-01-04T14:13:21;5.40;;;3.97;;
68987;SDS011;56038;46.080;11.116;2023-01-04T14:18:24;5.63;;;4.32;;
68987;SDS011;56038;46.080;11.116;2023-01-04T14:23:31;4.72;;;4.13;;
68987;SDS011;56038;46.080;11.116;2023-01-04T14:28:38;7.72;;;4.10;;
68987;SDS011;56038;46.080;11.116;2023-01-04T14:33:42;5.32;;;4.43;;
68987;SDS011;56038;46.080;11.116;2023-01-04T14:38:49;9.10;;;4.75;;
68987;SDS011;56038;46.080;11.116;2023-01-04T14:44:03;4.15;;;3.75;;
68987;SDS011;56038;46.080;11.116;2023-01-04T14:49:10;7.35;;;4.97;;
68987;SDS011;56038;46.080;11.116;2023-01-04T14:54:14;6.25;;;4.32;;
68987;SDS011;56038;46.080;11.116;2023-01-04T14:59:18;4.68;;;4.13;;
68987;SDS011;56038;46.080;11.116;2023-01-04T15:04:22;5.32;;;3.80;;
68987;SDS011;56038;46.080;11.116;2023-01-04T15:09:26;6.60;;;4.32;;
68987;SDS011;56038;46.080;11.116;2023-01-04T15:14:28;4.75;;;4.30;;
68987;SDS011;56038;46.080;11.116;2023-01-04T15:19:30;6.47;;;4.45;;
68987;SDS011;56038;46.080;11.116;2023-01-04T15:24:33;9.65;;;4.80;;
68987;SDS011;56038;46.080;11.116;2023-01-04T15:29:35;23.73;;;12.88;;
68987;SDS011;56038;46.080;11.116;2023-01-04T15:34:37;14.90;;;6.60;;
68987;SDS011;56038;46.080;11.116;2023-01-04T15:39:40;8.35;;;5.00;;
68987;SDS011;56038;46.080;11.116;2023-01-04T15:44:41;8.73;;;5.57;;
68987;SDS011;56038;46.080;11.116;2023-01-04T15:49:43;7.53;;;5.57;;
68987;SDS011;56038;46.080;11.116;2023-01-04T15:54:46;10.93;;;5.38;;
68987;SDS011;56038;46.080;11.116;2023-01-04T15:59:48;8.32;;;5.35;;
68987;SDS011;56038;46.080;11.116;2023-01-04T16:04:50;11.90;;;5.63;;
68987;SDS011;56038;46.080;11.116;2023-01-04T16:09:53;7.90;;;6.07;;
68987;SDS011;56038;46.080;11.116;2023-01-04T16:14:55;7.32;;;5.60;;
68987;SDS011;56038;46.080;11.116;2023-01-04T16:19:56;11.52;;;5.55;;
68987;SDS011;56038;46.080;11.116;2023-01-04T16:25:00;10.43;;;5.90;;
68987;SDS011;56038;46.080;11.116;2023-01-04T16:30:02;9.90;;;5.97;;
68987;SDS011;56038;46.080;11.116;2023-01-04T16:35:04;7.68;;;5.18;;
68987;SDS011;56038;46.080;11.116;2023-01-04T16:40:08;12.38;;;5.60;;
68987;SDS011;56038;46.080;11.116;2023-01-04T16:45:11;13.18;;;5.97;;
68987;SDS011;56038;46.080;11.116;2023-01-04T16:50:12;10.43;;;6.80;;
68987;SDS011;56038;46.080;11.116;2023-01-04T16:55:15;9.65;;;6.88;;
68987;SDS011;56038;46.080;11.116;2023-01-04T17:00:18;19.02;;;7.47;;
68987;SDS011;56038;46.080;11.116;2023-01-04T17:05:21;9.45;;;5.63;;
68987;SDS011;56038;46.080;11.116;2023-01-04T17:10:28;10.52;;;6.85;;
68987;SDS011;56038;46.080;11.116;2023-01-04T17:15:29;12.05;;;7.43;;
68987;SDS011;56038;46.080;11.116;2023-01-04T17:20:31;9.88;;;7.18;;
68987;SDS011;56038;46.080;11.116;2023-01-04T17:25:34;28.35;;;14.73;;
68987;SDS011;56038;46.080;11.116;2023-01-04T17:30:36;30.05;;;13.23;;
68987;SDS011;56038;46.080;11.116;2023-01-04T17:35:38;26.40;;;12.43;;
68987;SDS011;56038;46.080;11.116;2023-01-04T17:40:41;19.20;;;9.05;;
68987;SDS011;56038;46.080;11.116;2023-01-04T17:45:43;29.00;;;11.68;;
68987;SDS011;56038;46.080;11.116;2023-01-04T17:50:45;24.27;;;13.80;;
68987;SDS011;56038;46.080;11.116;2023-01-04T17:55:48;23.10;;;13.95;;
68987;SDS011;56038;46.080;11.116;2023-01-04T18:00:50;20.42;;;10.70;;
68987;SDS011;56038;46.080;11.116;2023-01-04T18:05:52;18.65;;;10.93;;
68987;SDS011;56038;46.080;11.116;2023-01-04T18:10:56;17.48;;;10.05;;
68987;SDS011;56038;46.080;11.116;2023-01-04T18:15:58;11.57;;;8.30;;
68987;SDS011;56038;46.080;11.116;2023-01-04T18:21:07;11.27;;;9.10;;
68987;SDS011;56038;46.080;11.116;2023-01-04T18:26:14;14.35;;;8.70;;
68987;SDS011;56038;46.080;11.116;2023-01-04T18:31:18;15.50;;;8.90;;
68987;SDS011;56038;46.080;11.116;2023-01-04T18:36:22;16.67;;;9.80;;
68987;SDS011;56038;46.080;11.116;2023-01-04T18:41:26;13.80;;;8.93;;
68987;SDS011;56038;46.080;11.116;2023-01-04T18:46:27;14.82;;;8.30;;
68987;SDS011;56038;46.080;11.116;2023-01-04T18:51:29;13.82;;;10.45;;
68987;SDS011;56038;46.080;11.116;2023-01-04T18:56:32;14.95;;;9.68;;
68987;SDS011;56038;46.080;11.116;2023-01-04T19:01:34;11.63;;;8.35;;
68987;SDS011;56038;46.080;11.116;2023-01-04T19:06:36;19.52;;;11.48;;
68987;SDS011;56038;46.080;11.116;2023-01-04T19:11:39;18.90;;;12.70;;
68987;SDS011;56038;46.080;11.116;2023-01-04T19:16:43;18.73;;;12.80;;
68987;SDS011;56038;46.080;11.116;2023-01-04T19:21:46;17.35;;;13.18;;
68987;SDS011;56038;46.080;11.116;2023-01-04T19:26:51;16.70;;;10.82;;
68987;SDS011;56038;46.080;11.116;2023-01-04T19:32:01;17.35;;;11.10;;
68987;SDS011;56038;46.080;11.116;2023-01-04T19:37:03;15.50;;;11.40;;
68987;SDS011;56038;46.080;11.116;2023-01-04T19:42:07;14.48;;;9.55;;
68987;SDS011;56038;46.080;11.116;2023-01-04T19:47:12;14.60;;;10.35;;
68987;SDS011;56038;46.080;11.116;2023-01-04T19:52:17;20.58;;;13.23;;
68987;SDS011;56038;46.080;11.116;2023-01-04T19:57:20;18.27;;;10.97;;
68987;SDS011;56038;46.080;11.116;2023-01-04T20:02:27;15.27;;;11.00;;
68987;SDS011;56038;46.080;11.116;2023-01-04T20:07:32;14.55;;;10.57;;
68987;SDS011;56038;46.080;11.116;2023-01-04T20:12:35;15.67;;;10.17;;
68987;SDS011;56038;46.080;11.116;2023-01-04T20:17:43;19.10;;;11.40;;
68987;SDS011;56038;46.080;11.116;2023-01-04T20:22:45;17.23;;;11.75;;
68987;SDS011;56038;46.080;11.116;2023-01-04T20:27:53;21.13;;;13.60;;
68987;SDS011;56038;46.080;11.116;2023-01-04T20:32:55;16.38;;;10.85;;
68987;SDS011;56038;46.080;11.116;2023-01-04T20:38:03;16.33;;;11.98;;
68987;SDS011;56038;46.080;11.116;2023-01-04T20:43:07;18.20;;;12.10;;
68987;SDS011;56038;46.080;11.116;2023-01-04T20:48:27;18.60;;;12.25;;
68987;SDS011;56038;46.080;11.116;2023-01-04T20:53:29;20.92;;;12.27;;
68987;SDS011;56038;46.080;11.116;2023-01-04T20:58:33;22.80;;;13.85;;
68987;SDS011;56038;46.080;11.116;2023-01-04T21:03:40;21.35;;;14.00;;
68987;SDS011;56038;46.080;11.116;2023-01-04T21:08:43;23.35;;;14.65;;
68987;SDS011;56038;46.080;11.116;2023-01-04T21:13:47;27.25;;;13.60;;
68987;SDS011;56038;46.080;11.116;2023-01-04T21:18:53;17.30;;;12.37;;
68987;SDS011;56038;46.080;11.116;2023-01-04T21:23:57;20.85;;;13.95;;
68987;SDS011;56038;46.080;11.116;2023-01-04T21:29:00;14.38;;;11.05;;
68987;SDS011;56038;46.080;11.116;2023-01-04T21:34:04;16.08;;;11.35;;
68987;SDS011;56038;46.080;11.116;2023-01-04T21:39:06;15.75;;;10.75;;
68987;SDS011;56038;46.080;11.116;2023-01-04T21:44:12;13.40;;;10.05;;
68987;SDS011;56038;46.080;11.116;2023-01-04T21:49:14;15.07;;;9.88;;
68987;SDS011;56038;46.080;11.116;2023-01-04T21:54:16;13.77;;;10.02;;
68987;SDS011;56038;46.080;11.116;2023-01-04T21:59:19;15.95;;;10.43;;
68987;SDS011;56038;46.080;11.116;2023-01-04T22:04:21;15.82;;;11.18;;
68987;SDS011;56038;46.080;11.116;2023-01-04T22:09:24;16.00;;;10.63;;
68987;SDS011;56038;46.080;11.116;2023-01-04T22:14:27;21.90;;;11.52;;
68987;SDS011;56038;46.080;11.116;2023-01-04T22:19:29;16.13;;;11.35;;
68987;SDS011;56038;46.080;11.116;2023-01-04T22:24:31;16.23;;;11.18;;
68987;SDS011;56038;46.080;11.116;2023-01-04T22:29:34;17.23;;;10.40;;
68987;SDS011;56038;46.080;11.116;2023-01-04T22:34:36;15.05;;;9.98;;
68987;SDS011;56038;46.080;11.116;2023-01-04T22:39:38;16.33;;;10.43;;
68987;SDS011;56038;46.080;11.116;2023-01-04T22:44:41;17.33;;;9.90;;
68987;SDS011;56038;46.080;11.116;2023-01-04T22:49:42;13.35;;;9.68;;
68987;SDS011;56038;46.080;11.116;2023-01-04T22:54:46;17.33;;;10.40;;
68987;SDS011;56038;46.080;11.116;2023-01-04T22:59:49;18.08;;;11.15;;
68987;SDS011;56038;46.080;11.116;2023-01-04T23:04:50;13.85;;;10.40;;
68987;SDS011;56038;46.080;11.116;2023-01-04T23:09:52;13.60;;;10.68;;
68987;SDS011;56038;46.080;11.116;2023-01-04T23:14:55;13.98;;;10.25;;
68987;SDS011;56038;46.080;11.116;2023-01-04T23:19:59;16.70;;;9.85;;
68987;SDS011;56038;46.080;11.116;2023-01-04T23:25:00;17.40;;;10.77;;
68987;SDS011;56038;46.080;11.116;2023-01-04T23:30:04;12.50;;;9.50;;
68987;SDS011;56038;46.080;11.116;2023-01-04T23:35:07;15.13;;;8.88;;
68987;SDS011;56038;46.080;11.116;2023-01-04T23:40:10;13.30;;;9.27;;
68987;SDS011;56038;46.080;11.116;2023-01-04T23:45:13;15.52;;;9.35;;
68987;SDS011;56038;46.080;11.116;2023-01-04T23:50:15;13.00;;;8.98;;
68987;SDS011;56038;46.080;11.116;2023-01-04T23:55:17;11.43;;;9.02;;
